Effingham, New Hampshire
Current Conditions -  °F | °C
As of 3:54 AM on Friday 24 Oct 2014 (Local Time) from KIZG Reporting Station
Light Rain Light Rain  
Wind Chill: 48°   Ceiling: 2300
Heat Index: 48°   Visibility: 10mi
Dew Point: 45°   Wind: 3mph
Humidity: 89%   Direction: 310°NW
Pressure: 29.72"   Gusts: NA
Location:  43.72°N, 71.0034°W
Report Text: KIZG 240754Z AUTO 31003KT 10SM -RA OVC023 09/07 A2972 RMK AO2 SLP065 P0002 T00890072
Loading
Personal Weather Stations






























Interactive Weather Map
Tropical Storm Tracking
New forecast layout! Learn more

10-Day Weather Forecast

Advertisements
Track Severe Weather on mobile